Tropical Cyclones
[Index]
Main Index Home Page Stock Weather Photos Extreme Storms Discussion Storm News and Storm Chasing Reports Tropical Cyclones / Hurricanes / Typhoons Weather Data and Links Wild Fires / Bushfires Weather Observation Techniques Weather Picture Catalogue Tornado Pictures and Reports Stock Video Footage and DVDs for sale
Season 2008-2009 Tropical Cyclone KIRRILY Track Map
Season 2008-2009 Summaries: [BoM-AU] [JTWC-AU] [JTWC-SIO] [JTWC-SPAC] [JTWC-SH]
<<- Previous TC | BoM 2008-2009 Season | Next TC ->>

click for intensity scale information  Lat/long Grid: Show Hide

 Date Labels: Show Hide

Bureau of Meteorology Tropical Cyclone Data

Name: KIRRILY
Number: 929 / 200809_23

17 Apr 2009 06:00 UTC to 01 May 2009 06:00 UTC

    date/time    lat    long    hPa   cat  kts
2009-04-17 06    7.3   133.3   1005         20          
2009-04-17 12    7.4   133.0   1007         20          
2009-04-17 18    7.7   132.6   1007         20          
2009-04-18 00    8.0   132.3   1008         20          
2009-04-18 06    8.4   131.9   1006         20          
2009-04-18 12    8.3   131.5   1008         20          
2009-04-18 18    8.1   131.0   1007         20          
2009-04-19 00    7.8   130.6   1008         25          
2009-04-19 06    7.7   130.3   1005         25          
2009-04-19 12    7.7   130.0   1007         20          
2009-04-19 18    7.6   129.7   1006         20          
2009-04-20 00    7.4   129.6   1007         25          
2009-04-20 06    7.0   129.9   1004         25          
2009-04-20 12    7.0   130.8   1006         20          
2009-04-20 18    7.0   131.5   1005         20          
2009-04-21 00    7.0   132.0   1007         25          
2009-04-21 06    7.1   132.5   1004         25          
2009-04-21 12    7.2   132.8   1006         20          
2009-04-21 18    7.2   133.0   1006         20          
2009-04-22 00    7.3   133.2   1007         20          
2009-04-22 06    7.4   133.2   1005         25          
2009-04-22 12    7.5   133.0   1007         20          
2009-04-22 18    7.6   132.9   1006         25          
2009-04-23 00    7.8   132.9   1007         25          
2009-04-23 06    8.0   133.0   1006         25          
2009-04-23 12    8.3   133.2   1008         20          
2009-04-23 18    8.5   133.5   1008         25          
2009-04-24 00    8.8   134.0   1008         20          
2009-04-24 06    8.8   134.5   1006         20          
2009-04-24 12    8.8   134.8   1008         20          
2009-04-24 18    8.6   135.0   1007         25          
2009-04-25 00    8.3   135.1   1008         20          
2009-04-25 06    8.1   135.4                25          
2009-04-25 12    8.0   135.6                25          
2009-04-25 18    7.9   135.8                25          
2009-04-26 00    7.7   135.7   1004         30          
2009-04-26 03    7.7   135.4   1004         30          
2009-04-26 06    7.5   135.1   1003         30          
2009-04-26 09    7.5   135.0   1002         30          
2009-04-26 12    7.4   134.9    999         35          
2009-04-26 15    7.3   134.8    999         35          
2009-04-26 18    7.2   134.6                35          
2009-04-26 21    6.9   134.5                35          
2009-04-27 00    6.7   134.4                35          
2009-04-27 03    6.6   134.4                35          
2009-04-27 06    6.4   134.3                35          
2009-04-27 09    6.2   134.2                35          
2009-04-27 12    6.2   134.1                35          
2009-04-27 15    6.2   133.9                35          
2009-04-27 18    6.1   133.8                35          
2009-04-27 21    6.1   133.6                35          
2009-04-28 00    6.0   133.4    999         35          
2009-04-28 03    5.9   133.3   1002         30          
2009-04-28 06    5.7   133.0   1002         30          
2009-04-28 09    5.5   133.1   1004         30          
2009-04-28 12    5.4   133.2   1004         30          
2009-04-28 15    5.5   133.2   1007         25          
2009-04-28 18    5.5   133.2   1006         25          
2009-04-28 21    5.3   133.1   1006         25          
2009-04-29 00    5.2   133.0   1007         25          
2009-04-29 03    5.1   132.8   1007         25          
2009-04-29 06    5.1   132.7   1007         25          
2009-04-29 12    5.1   132.5   1009         20          
2009-04-29 18    5.0   132.4   1009         20          
2009-04-30 00    5.0   132.1   1009         20          
2009-04-30 03    5.1   131.9                20          
2009-04-30 06    5.1   131.7                25          
2009-04-30 12    5.1   131.4                25          
2009-04-30 18    5.1   131.2                25          
2009-05-01 00    5.2   131.0                25          
2009-05-01 03    5.3   130.8                25          
2009-05-01 06    5.1   130.5                25          
Winds are 10-min average.

Tropical cyclone tracks developed by Michael Bath using data from the Bureau of Meteorology and Google Maps.


[Australian Severe Weather index] [Copyright Notice] [Email Contacts] [Search This Site] [Privacy Policy]
Document: tropical_cyclone_kirrily.htm Updated: 29 June 2017